Hovedside
METAR-TAF:

METAR-TAF

Lufthavner :

Karachi, Pakistan

Jinnah internasjonale lufthavn

breddegrad: 24-54N, lengdegrad: 067-08E, høyde over havet: 21 m

Gjeldene værobservasjon

Denne rapporten ble laget for 37 minutter siden, klokken 17:55 UTC
Vind 6 kt fra Vest
Temperatur 27°C
Luftfuktighet 66%
Trykk 1009 hPa
Sikt: 7000 m

METAR: OPKC 241755Z 26006KT 7000 NSC 27/20 Q1009 NOSIG

Tid: 23:32 (18:32 UTC)

Varsel

Denne rapporten ble laget for 3 timer og 2 minutter siden, klokken 15:30 UTC
Varsel gyldig fra 24. klokken 18 UTC til 25. klokken 24 UTC
Vind 10 kt fra Vest
Sikt: 5000 m
dis
Midlertidig
fra 25. klokken 01 UTC til 25. klokken 05 UTC
Vind 7 kt fra Vest-nordvest
Sikt: 4000 m
dis
Fra 25. klokken 0700 UTC
Vind 10 kt fra Vest-sørvest med vindkast opp mot 20 kt
Sikt: 7000 m
Fra 25. klokken 1600 UTC
Vind 8 kt fra Vest
Sikt: 6000 m

TAF: OPKC 241530Z 2418/2524 28010KT 5000 HZ NSC TEMPO 2501/2505 29007KT 4000 HZ NSC FM250700 25010G20KT 7000 NSC FM251600 27008KT 6000 NSC

Værobservasjoner og værvarsel for over 4000 flyplasser (METAR- og TAF-rapporter).

Tilgjengelige stasjoner er representert av de røde og gule prikkene på kartet.

Hold musepekeren over prikken for å se navnet på stasjonen.

Klikk så for å se værobservasjoner og -varsler.

For å forandre kartet kan du klikke på den grønne knappen med svart kryss for å zoome inn, på den grønne knappen med strek for å zoome ut, eller på de grønne pilene for å se tilstøtende kart.


METAR-TAF: